sensor_id;sensor_type;location;lat;lon;timestamp;P1;durP1;ratioP1;P2;durP2;ratioP2
11524;SDS011;5819;49.648;8.330;2023-03-01T00:01:18;16.93;;;11.77;;
11524;SDS011;5819;49.648;8.330;2023-03-01T00:03:49;17.97;;;11.73;;
11524;SDS011;5819;49.648;8.330;2023-03-01T00:06:18;17.50;;;12.50;;
11524;SDS011;5819;49.648;8.330;2023-03-01T00:08:45;17.40;;;12.33;;
11524;SDS011;5819;49.648;8.330;2023-03-01T00:11:15;16.43;;;11.63;;
11524;SDS011;5819;49.648;8.330;2023-03-01T00:13:44;18.80;;;12.43;;
11524;SDS011;5819;49.648;8.330;2023-03-01T00:16:14;17.83;;;12.27;;
11524;SDS011;5819;49.648;8.330;2023-03-01T00:18:43;20.17;;;12.37;;
11524;SDS011;5819;49.648;8.330;2023-03-01T00:21:13;19.27;;;12.57;;
11524;SDS011;5819;49.648;8.330;2023-03-01T00:23:41;16.30;;;11.43;;
11524;SDS011;5819;49.648;8.330;2023-03-01T00:26:09;18.07;;;13.00;;
11524;SDS011;5819;49.648;8.330;2023-03-01T00:28:41;18.33;;;12.27;;
11524;SDS011;5819;49.648;8.330;2023-03-01T00:31:10;17.47;;;11.90;;
11524;SDS011;5819;49.648;8.330;2023-03-01T00:33:40;17.33;;;12.50;;
11524;SDS011;5819;49.648;8.330;2023-03-01T00:36:09;17.63;;;12.27;;
11524;SDS011;5819;49.648;8.330;2023-03-01T00:38:40;19.13;;;13.03;;
11524;SDS011;5819;49.648;8.330;2023-03-01T00:41:10;17.83;;;13.43;;
11524;SDS011;5819;49.648;8.330;2023-03-01T00:43:39;23.70;;;13.70;;
11524;SDS011;5819;49.648;8.330;2023-03-01T00:46:08;17.83;;;12.83;;
11524;SDS011;5819;49.648;8.330;2023-03-01T00:48:37;20.10;;;13.27;;
11524;SDS011;5819;49.648;8.330;2023-03-01T00:51:05;18.87;;;13.30;;
11524;SDS011;5819;49.648;8.330;2023-03-01T00:53:34;21.13;;;12.33;;
11524;SDS011;5819;49.648;8.330;2023-03-01T00:56:04;19.27;;;12.50;;
11524;SDS011;5819;49.648;8.330;2023-03-01T00:58:34;18.03;;;12.50;;
11524;SDS011;5819;49.648;8.330;2023-03-01T01:01:06;18.00;;;12.83;;
11524;SDS011;5819;49.648;8.330;2023-03-01T01:03:44;19.40;;;13.20;;
11524;SDS011;5819;49.648;8.330;2023-03-01T01:06:14;21.13;;;12.97;;
11524;SDS011;5819;49.648;8.330;2023-03-01T01:08:46;17.47;;;12.87;;
11524;SDS011;5819;49.648;8.330;2023-03-01T01:11:16;21.27;;;13.27;;
11524;SDS011;5819;49.648;8.330;2023-03-01T01:13:44;22.03;;;13.13;;
11524;SDS011;5819;49.648;8.330;2023-03-01T01:16:14;17.50;;;12.87;;
11524;SDS011;5819;49.648;8.330;2023-03-01T01:18:42;18.73;;;12.87;;
11524;SDS011;5819;49.648;8.330;2023-03-01T01:21:11;19.07;;;14.13;;
11524;SDS011;5819;49.648;8.330;2023-03-01T01:23:41;17.73;;;13.17;;
11524;SDS011;5819;49.648;8.330;2023-03-01T01:26:12;20.20;;;14.13;;
11524;SDS011;5819;49.648;8.330;2023-03-01T01:28:42;19.03;;;13.13;;
11524;SDS011;5819;49.648;8.330;2023-03-01T01:31:10;20.43;;;14.10;;
11524;SDS011;5819;49.648;8.330;2023-03-01T01:33:38;21.03;;;14.23;;
11524;SDS011;5819;49.648;8.330;2023-03-01T01:36:06;18.67;;;13.67;;
11524;SDS011;5819;49.648;8.330;2023-03-01T01:38:35;21.40;;;13.40;;
11524;SDS011;5819;49.648;8.330;2023-03-01T01:41:05;19.50;;;13.47;;
11524;SDS011;5819;49.648;8.330;2023-03-01T01:43:34;19.43;;;13.47;;
11524;SDS011;5819;49.648;8.330;2023-03-01T01:46:05;20.60;;;14.20;;
11524;SDS011;5819;49.648;8.330;2023-03-01T01:48:41;21.60;;;14.07;;
11524;SDS011;5819;49.648;8.330;2023-03-01T01:51:11;20.37;;;14.10;;
11524;SDS011;5819;49.648;8.330;2023-03-01T01:53:41;23.63;;;14.30;;
11524;SDS011;5819;49.648;8.330;2023-03-01T01:56:13;18.83;;;13.07;;
11524;SDS011;5819;49.648;8.330;2023-03-01T01:58:45;20.40;;;13.20;;
11524;SDS011;5819;49.648;8.330;2023-03-01T02:01:15;23.03;;;14.50;;
11524;SDS011;5819;49.648;8.330;2023-03-01T02:03:44;19.83;;;13.00;;
11524;SDS011;5819;49.648;8.330;2023-03-01T02:06:15;20.63;;;14.37;;
11524;SDS011;5819;49.648;8.330;2023-03-01T02:08:49;19.37;;;13.90;;
11524;SDS011;5819;49.648;8.330;2023-03-01T02:11:20;22.50;;;14.53;;
11524;SDS011;5819;49.648;8.330;2023-03-01T02:13:48;21.93;;;14.47;;
11524;SDS011;5819;49.648;8.330;2023-03-01T02:16:18;21.90;;;14.10;;
11524;SDS011;5819;49.648;8.330;2023-03-01T02:18:47;20.27;;;13.50;;
11524;SDS011;5819;49.648;8.330;2023-03-01T02:21:23;20.37;;;13.43;;
11524;SDS011;5819;49.648;8.330;2023-03-01T02:24:03;25.57;;;15.60;;
11524;SDS011;5819;49.648;8.330;2023-03-01T02:26:40;22.87;;;15.87;;
11524;SDS011;5819;49.648;8.330;2023-03-01T02:29:13;20.17;;;14.37;;
11524;SDS011;5819;49.648;8.330;2023-03-01T02:31:42;19.30;;;14.00;;
11524;SDS011;5819;49.648;8.330;2023-03-01T02:34:12;17.23;;;13.70;;
11524;SDS011;5819;49.648;8.330;2023-03-01T02:36:43;19.93;;;14.80;;
11524;SDS011;5819;49.648;8.330;2023-03-01T02:39:14;19.00;;;13.90;;
11524;SDS011;5819;49.648;8.330;2023-03-01T02:41:49;20.47;;;14.37;;
11524;SDS011;5819;49.648;8.330;2023-03-01T02:44:23;18.57;;;13.87;;
11524;SDS011;5819;49.648;8.330;2023-03-01T02:46:53;18.47;;;13.70;;
11524;SDS011;5819;49.648;8.330;2023-03-01T02:49:24;20.23;;;14.43;;
11524;SDS011;5819;49.648;8.330;2023-03-01T02:52:16;22.23;;;14.77;;
11524;SDS011;5819;49.648;8.330;2023-03-01T02:54:52;22.23;;;14.60;;
11524;SDS011;5819;49.648;8.330;2023-03-01T02:57:25;19.33;;;13.73;;
11524;SDS011;5819;49.648;8.330;2023-03-01T02:59:57;19.27;;;14.27;;
11524;SDS011;5819;49.648;8.330;2023-03-01T03:02:33;20.50;;;13.90;;
11524;SDS011;5819;49.648;8.330;2023-03-01T03:05:15;20.73;;;14.30;;
11524;SDS011;5819;49.648;8.330;2023-03-01T03:07:45;18.77;;;14.33;;
11524;SDS011;5819;49.648;8.330;2023-03-01T03:10:16;22.23;;;14.80;;
11524;SDS011;5819;49.648;8.330;2023-03-01T03:12:48;22.20;;;15.00;;
11524;SDS011;5819;49.648;8.330;2023-03-01T03:15:19;23.77;;;15.13;;
11524;SDS011;5819;49.648;8.330;2023-03-01T03:17:48;21.40;;;14.43;;
11524;SDS011;5819;49.648;8.330;2023-03-01T03:20:17;19.87;;;14.43;;
11524;SDS011;5819;49.648;8.330;2023-03-01T03:22:47;22.30;;;15.20;;
11524;SDS011;5819;49.648;8.330;2023-03-01T03:25:16;20.97;;;14.83;;
11524;SDS011;5819;49.648;8.330;2023-03-01T03:27:45;25.00;;;16.10;;
11524;SDS011;5819;49.648;8.330;2023-03-01T03:30:16;21.20;;;14.30;;
11524;SDS011;5819;49.648;8.330;2023-03-01T03:32:47;24.60;;;16.47;;
11524;SDS011;5819;49.648;8.330;2023-03-01T03:35:19;21.60;;;14.87;;
11524;SDS011;5819;49.648;8.330;2023-03-01T03:37:48;23.10;;;15.87;;
11524;SDS011;5819;49.648;8.330;2023-03-01T03:40:33;19.83;;;14.30;;
11524;SDS011;5819;49.648;8.330;2023-03-01T03:43:03;24.57;;;15.33;;
11524;SDS011;5819;49.648;8.330;2023-03-01T03:45:32;23.53;;;15.27;;
11524;SDS011;5819;49.648;8.330;2023-03-01T03:48:03;19.87;;;15.27;;
11524;SDS011;5819;49.648;8.330;2023-03-01T03:50:33;20.10;;;14.67;;
11524;SDS011;5819;49.648;8.330;2023-03-01T03:53:01;22.57;;;14.83;;
11524;SDS011;5819;49.648;8.330;2023-03-01T03:55:30;20.43;;;14.83;;
11524;SDS011;5819;49.648;8.330;2023-03-01T03:58:00;22.63;;;16.03;;
11524;SDS011;5819;49.648;8.330;2023-03-01T04:00:33;23.23;;;14.90;;
11524;SDS011;5819;49.648;8.330;2023-03-01T04:03:03;23.53;;;16.43;;
11524;SDS011;5819;49.648;8.330;2023-03-01T04:05:31;25.27;;;16.67;;
11524;SDS011;5819;49.648;8.330;2023-03-01T04:07:59;23.53;;;16.10;;
11524;SDS011;5819;49.648;8.330;2023-03-01T04:10:34;23.83;;;15.37;;
11524;SDS011;5819;49.648;8.330;2023-03-01T04:13:04;19.57;;;14.83;;
11524;SDS011;5819;49.648;8.330;2023-03-01T04:15:33;22.83;;;15.10;;
11524;SDS011;5819;49.648;8.330;2023-03-01T04:18:02;21.90;;;14.73;;
11524;SDS011;5819;49.648;8.330;2023-03-01T04:20:32;23.60;;;15.47;;
11524;SDS011;5819;49.648;8.330;2023-03-01T04:23:02;21.50;;;15.07;;
11524;SDS011;5819;49.648;8.330;2023-03-01T04:25:37;22.30;;;15.33;;
11524;SDS011;5819;49.648;8.330;2023-03-01T04:28:06;22.23;;;15.50;;
11524;SDS011;5819;49.648;8.330;2023-03-01T04:30:34;23.53;;;16.27;;
11524;SDS011;5819;49.648;8.330;2023-03-01T04:33:05;24.07;;;15.40;;
11524;SDS011;5819;49.648;8.330;2023-03-01T04:35:34;21.90;;;15.60;;
11524;SDS011;5819;49.648;8.330;2023-03-01T04:38:03;21.77;;;15.80;;
11524;SDS011;5819;49.648;8.330;2023-03-01T04:40:31;25.77;;;16.40;;
11524;SDS011;5819;49.648;8.330;2023-03-01T04:42:59;23.33;;;16.20;;
11524;SDS011;5819;49.648;8.330;2023-03-01T04:45:27;22.37;;;15.00;;
11524;SDS011;5819;49.648;8.330;2023-03-01T04:47:56;22.43;;;15.50;;
11524;SDS011;5819;49.648;8.330;2023-03-01T04:50:26;21.97;;;16.20;;
11524;SDS011;5819;49.648;8.330;2023-03-01T04:52:54;21.83;;;15.57;;
11524;SDS011;5819;49.648;8.330;2023-03-01T04:55:25;22.63;;;16.53;;
11524;SDS011;5819;49.648;8.330;2023-03-01T04:57:53;21.07;;;15.97;;
11524;SDS011;5819;49.648;8.330;2023-03-01T05:00:22;22.77;;;16.00;;
11524;SDS011;5819;49.648;8.330;2023-03-01T05:02:51;23.80;;;15.87;;
11524;SDS011;5819;49.648;8.330;2023-03-01T05:05:22;23.30;;;16.23;;
11524;SDS011;5819;49.648;8.330;2023-03-01T05:07:54;24.97;;;15.90;;
11524;SDS011;5819;49.648;8.330;2023-03-01T05:10:24;25.57;;;16.50;;
11524;SDS011;5819;49.648;8.330;2023-03-01T05:12:53;24.23;;;17.53;;
11524;SDS011;5819;49.648;8.330;2023-03-01T05:15:21;23.70;;;17.00;;
11524;SDS011;5819;49.648;8.330;2023-03-01T05:17:51;24.30;;;17.47;;
11524;SDS011;5819;49.648;8.330;2023-03-01T05:20:21;26.53;;;17.07;;
11524;SDS011;5819;49.648;8.330;2023-03-01T05:22:50;25.13;;;16.37;;
11524;SDS011;5819;49.648;8.330;2023-03-01T05:25:20;23.47;;;16.40;;
11524;SDS011;5819;49.648;8.330;2023-03-01T05:27:49;21.97;;;15.83;;
11524;SDS011;5819;49.648;8.330;2023-03-01T05:30:17;25.13;;;17.53;;
11524;SDS011;5819;49.648;8.330;2023-03-01T05:32:46;24.37;;;15.00;;
11524;SDS011;5819;49.648;8.330;2023-03-01T05:35:16;23.43;;;16.07;;
11524;SDS011;5819;49.648;8.330;2023-03-01T05:37:46;22.83;;;16.17;;
11524;SDS011;5819;49.648;8.330;2023-03-01T05:40:16;25.93;;;16.53;;
11524;SDS011;5819;49.648;8.330;2023-03-01T05:42:47;22.07;;;16.33;;
11524;SDS011;5819;49.648;8.330;2023-03-01T05:45:17;22.77;;;16.10;;
11524;SDS011;5819;49.648;8.330;2023-03-01T05:47:46;23.67;;;16.67;;
11524;SDS011;5819;49.648;8.330;2023-03-01T05:50:16;24.57;;;17.03;;
11524;SDS011;5819;49.648;8.330;2023-03-01T05:52:46;25.40;;;16.10;;
11524;SDS011;5819;49.648;8.330;2023-03-01T05:55:15;23.97;;;16.63;;
11524;SDS011;5819;49.648;8.330;2023-03-01T05:57:44;24.90;;;16.20;;
11524;SDS011;5819;49.648;8.330;2023-03-01T06:00:14;22.80;;;16.17;;
11524;SDS011;5819;49.648;8.330;2023-03-01T06:02:44;24.70;;;16.27;;
11524;SDS011;5819;49.648;8.330;2023-03-01T06:05:13;23.17;;;16.13;;
11524;SDS011;5819;49.648;8.330;2023-03-01T06:07:42;23.93;;;16.33;;
11524;SDS011;5819;49.648;8.330;2023-03-01T06:10:10;27.03;;;18.43;;
11524;SDS011;5819;49.648;8.330;2023-03-01T06:12:40;26.73;;;18.47;;
11524;SDS011;5819;49.648;8.330;2023-03-01T06:15:09;24.90;;;16.80;;
11524;SDS011;5819;49.648;8.330;2023-03-01T06:17:40;29.27;;;17.20;;
11524;SDS011;5819;49.648;8.330;2023-03-01T06:20:10;25.10;;;17.40;;
11524;SDS011;5819;49.648;8.330;2023-03-01T06:22:39;28.53;;;18.17;;
11524;SDS011;5819;49.648;8.330;2023-03-01T06:25:09;24.90;;;17.40;;
11524;SDS011;5819;49.648;8.330;2023-03-01T06:27:37;24.47;;;17.87;;
11524;SDS011;5819;49.648;8.330;2023-03-01T06:30:05;23.93;;;17.57;;
11524;SDS011;5819;49.648;8.330;2023-03-01T06:32:36;29.80;;;17.53;;
11524;SDS011;5819;49.648;8.330;2023-03-01T06:35:05;26.37;;;18.07;;
11524;SDS011;5819;49.648;8.330;2023-03-01T06:37:34;26.70;;;17.80;;
11524;SDS011;5819;49.648;8.330;2023-03-01T06:40:02;24.87;;;17.00;;
11524;SDS011;5819;49.648;8.330;2023-03-01T06:42:34;27.80;;;17.80;;
11524;SDS011;5819;49.648;8.330;2023-03-01T06:45:04;29.33;;;18.47;;
11524;SDS011;5819;49.648;8.330;2023-03-01T06:47:33;26.13;;;17.20;;
11524;SDS011;5819;49.648;8.330;2023-03-01T06:50:01;23.33;;;16.37;;
11524;SDS011;5819;49.648;8.330;2023-03-01T06:52:31;24.77;;;17.97;;
11524;SDS011;5819;49.648;8.330;2023-03-01T06:54:59;26.70;;;18.07;;
11524;SDS011;5819;49.648;8.330;2023-03-01T06:57:28;26.07;;;17.60;;
11524;SDS011;5819;49.648;8.330;2023-03-01T06:59:56;25.47;;;18.00;;
11524;SDS011;5819;49.648;8.330;2023-03-01T07:02:24;25.67;;;17.97;;
11524;SDS011;5819;49.648;8.330;2023-03-01T07:04:52;25.50;;;17.57;;
11524;SDS011;5819;49.648;8.330;2023-03-01T07:07:22;25.87;;;17.53;;
11524;SDS011;5819;49.648;8.330;2023-03-01T07:09:51;64.57;;;40.57;;
11524;SDS011;5819;49.648;8.330;2023-03-01T07:12:22;89.17;;;52.83;;
11524;SDS011;5819;49.648;8.330;2023-03-01T07:14:50;26.60;;;18.67;;
11524;SDS011;5819;49.648;8.330;2023-03-01T07:17:18;27.83;;;18.27;;
11524;SDS011;5819;49.648;8.330;2023-03-01T07:19:46;27.47;;;18.57;;
11524;SDS011;5819;49.648;8.330;2023-03-01T07:22:14;28.53;;;18.37;;
11524;SDS011;5819;49.648;8.330;2023-03-01T07:24:41;25.60;;;18.13;;
11524;SDS011;5819;49.648;8.330;2023-03-01T07:27:11;29.87;;;18.87;;
11524;SDS011;5819;49.648;8.330;2023-03-01T07:29:39;28.70;;;18.97;;
11524;SDS011;5819;49.648;8.330;2023-03-01T07:32:07;29.93;;;18.50;;
11524;SDS011;5819;49.648;8.330;2023-03-01T07:34:37;25.97;;;17.20;;
11524;SDS011;5819;49.648;8.330;2023-03-01T07:37:05;25.47;;;17.83;;
11524;SDS011;5819;49.648;8.330;2023-03-01T07:39:32;25.33;;;17.93;;
11524;SDS011;5819;49.648;8.330;2023-03-01T07:42:00;24.93;;;17.67;;
11524;SDS011;5819;49.648;8.330;2023-03-01T07:44:29;25.33;;;17.23;;
11524;SDS011;5819;49.648;8.330;2023-03-01T07:46:57;27.40;;;18.00;;
11524;SDS011;5819;49.648;8.330;2023-03-01T07:49:26;25.80;;;17.77;;
11524;SDS011;5819;49.648;8.330;2023-03-01T07:51:54;26.33;;;18.63;;
11524;SDS011;5819;49.648;8.330;2023-03-01T07:54:23;26.57;;;18.10;;
11524;SDS011;5819;49.648;8.330;2023-03-01T07:56:52;25.17;;;17.63;;
11524;SDS011;5819;49.648;8.330;2023-03-01T16:02:32;18.45;;;10.93;;
11524;SDS011;5819;49.648;8.330;2023-03-01T16:05:04;14.02;;;10.30;;
11524;SDS011;5819;49.648;8.330;2023-03-01T16:07:33;16.85;;;11.15;;
11524;SDS011;5819;49.648;8.330;2023-03-01T16:10:07;15.85;;;11.00;;
11524;SDS011;5819;49.648;8.330;2023-03-01T16:12:36;14.98;;;10.95;;
11524;SDS011;5819;49.648;8.330;2023-03-01T16:15:09;17.17;;;10.38;;
11524;SDS011;5819;49.648;8.330;2023-03-01T16:17:45;16.27;;;11.30;;
11524;SDS011;5819;49.648;8.330;2023-03-01T16:20:21;16.55;;;11.55;;
11524;SDS011;5819;49.648;8.330;2023-03-01T16:22:54;16.45;;;11.23;;
11524;SDS011;5819;49.648;8.330;2023-03-01T16:25:24;17.33;;;11.07;;
11524;SDS011;5819;49.648;8.330;2023-03-01T16:27:52;15.95;;;11.25;;
11524;SDS011;5819;49.648;8.330;2023-03-01T16:30:21;17.38;;;11.15;;
11524;SDS011;5819;49.648;8.330;2023-03-01T16:32:51;12.40;;;10.45;;
11524;SDS011;5819;49.648;8.330;2023-03-01T16:35:22;17.58;;;10.90;;
11524;SDS011;5819;49.648;8.330;2023-03-01T16:37:50;15.40;;;11.35;;
11524;SDS011;5819;49.648;8.330;2023-03-01T16:40:20;15.00;;;11.80;;
11524;SDS011;5819;49.648;8.330;2023-03-01T16:42:50;14.52;;;11.70;;
11524;SDS011;5819;49.648;8.330;2023-03-01T16:45:19;14.95;;;11.48;;
11524;SDS011;5819;49.648;8.330;2023-03-01T16:47:51;16.50;;;10.75;;
11524;SDS011;5819;49.648;8.330;2023-03-01T16:50:21;14.73;;;10.77;;
11524;SDS011;5819;49.648;8.330;2023-03-01T16:52:50;16.17;;;11.20;;
11524;SDS011;5819;49.648;8.330;2023-03-01T16:55:18;17.80;;;11.60;;
11524;SDS011;5819;49.648;8.330;2023-03-01T16:57:46;20.58;;;14.30;;
11524;SDS011;5819;49.648;8.330;2023-03-01T17:00:15;16.85;;;13.02;;
11524;SDS011;5819;49.648;8.330;2023-03-01T17:02:44;18.33;;;13.18;;
11524;SDS011;5819;49.648;8.330;2023-03-01T17:05:13;19.10;;;14.43;;
11524;SDS011;5819;49.648;8.330;2023-03-01T17:07:42;16.20;;;11.90;;
11524;SDS011;5819;49.648;8.330;2023-03-01T17:10:10;14.98;;;11.48;;
11524;SDS011;5819;49.648;8.330;2023-03-01T17:12:38;17.90;;;11.40;;
11524;SDS011;5819;49.648;8.330;2023-03-01T17:15:07;15.07;;;10.98;;
11524;SDS011;5819;49.648;8.330;2023-03-01T17:17:38;15.07;;;11.25;;
11524;SDS011;5819;49.648;8.330;2023-03-01T17:20:08;16.70;;;11.43;;
11524;SDS011;5819;49.648;8.330;2023-03-01T17:22:41;14.57;;;11.25;;
11524;SDS011;5819;49.648;8.330;2023-03-01T17:25:10;19.90;;;13.70;;
11524;SDS011;5819;49.648;8.330;2023-03-01T17:27:39;24.92;;;16.13;;
11524;SDS011;5819;49.648;8.330;2023-03-01T17:30:09;26.42;;;17.35;;
11524;SDS011;5819;49.648;8.330;2023-03-01T17:32:40;19.33;;;13.52;;
11524;SDS011;5819;49.648;8.330;2023-03-01T17:35:09;15.38;;;11.30;;
11524;SDS011;5819;49.648;8.330;2023-03-01T17:37:39;17.50;;;12.63;;
11524;SDS011;5819;49.648;8.330;2023-03-01T17:40:11;19.33;;;12.52;;
11524;SDS011;5819;49.648;8.330;2023-03-01T17:42:40;17.52;;;12.50;;
11524;SDS011;5819;49.648;8.330;2023-03-01T17:45:09;16.40;;;12.57;;
11524;SDS011;5819;49.648;8.330;2023-03-01T17:47:37;15.68;;;11.88;;
11524;SDS011;5819;49.648;8.330;2023-03-01T17:50:07;17.13;;;12.75;;
11524;SDS011;5819;49.648;8.330;2023-03-01T17:52:36;18.02;;;12.40;;
11524;SDS011;5819;49.648;8.330;2023-03-01T17:55:06;17.10;;;12.27;;
11524;SDS011;5819;49.648;8.330;2023-03-01T17:57:36;21.77;;;13.43;;
11524;SDS011;5819;49.648;8.330;2023-03-01T18:00:08;16.52;;;12.27;;
11524;SDS011;5819;49.648;8.330;2023-03-01T18:02:39;16.15;;;12.52;;
11524;SDS011;5819;49.648;8.330;2023-03-01T18:05:09;20.05;;;13.15;;
11524;SDS011;5819;49.648;8.330;2023-03-01T18:07:37;20.23;;;14.50;;
11524;SDS011;5819;49.648;8.330;2023-03-01T18:10:08;17.83;;;13.13;;
11524;SDS011;5819;49.648;8.330;2023-03-01T18:12:37;18.52;;;13.70;;
11524;SDS011;5819;49.648;8.330;2023-03-01T18:15:07;17.30;;;12.95;;
11524;SDS011;5819;49.648;8.330;2023-03-01T18:17:36;20.08;;;13.75;;
11524;SDS011;5819;49.648;8.330;2023-03-01T18:20:05;18.95;;;14.23;;
11524;SDS011;5819;49.648;8.330;2023-03-01T18:22:34;17.83;;;13.20;;
11524;SDS011;5819;49.648;8.330;2023-03-01T18:25:03;19.23;;;13.15;;
11524;SDS011;5819;49.648;8.330;2023-03-01T18:27:32;18.15;;;13.05;;
11524;SDS011;5819;49.648;8.330;2023-03-01T18:30:02;20.30;;;13.20;;
11524;SDS011;5819;49.648;8.330;2023-03-01T18:32:30;17.20;;;12.65;;
11524;SDS011;5819;49.648;8.330;2023-03-01T18:34:58;19.58;;;12.95;;
11524;SDS011;5819;49.648;8.330;2023-03-01T18:37:26;19.75;;;13.38;;
11524;SDS011;5819;49.648;8.330;2023-03-01T18:39:54;18.88;;;12.75;;
11524;SDS011;5819;49.648;8.330;2023-03-01T18:42:23;21.20;;;13.70;;
11524;SDS011;5819;49.648;8.330;2023-03-01T18:44:52;18.40;;;13.45;;
11524;SDS011;5819;49.648;8.330;2023-03-01T18:47:20;22.13;;;14.70;;
11524;SDS011;5819;49.648;8.330;2023-03-01T18:49:47;20.73;;;14.65;;
11524;SDS011;5819;49.648;8.330;2023-03-01T18:52:16;21.42;;;15.63;;
11524;SDS011;5819;49.648;8.330;2023-03-01T18:54:44;20.73;;;15.10;;
11524;SDS011;5819;49.648;8.330;2023-03-01T18:57:12;23.40;;;16.33;;
11524;SDS011;5819;49.648;8.330;2023-03-01T18:59:43;20.92;;;15.40;;
11524;SDS011;5819;49.648;8.330;2023-03-01T19:02:12;23.17;;;15.88;;
11524;SDS011;5819;49.648;8.330;2023-03-01T19:04:44;24.30;;;16.02;;
11524;SDS011;5819;49.648;8.330;2023-03-01T19:07:13;25.52;;;15.63;;
11524;SDS011;5819;49.648;8.330;2023-03-01T19:09:42;23.80;;;16.02;;
11524;SDS011;5819;49.648;8.330;2023-03-01T19:12:10;24.63;;;17.45;;
11524;SDS011;5819;49.648;8.330;2023-03-01T19:14:38;22.15;;;15.10;;
11524;SDS011;5819;49.648;8.330;2023-03-01T19:17:07;22.35;;;15.50;;
11524;SDS011;5819;49.648;8.330;2023-03-01T19:19:37;20.85;;;15.52;;
11524;SDS011;5819;49.648;8.330;2023-03-01T19:22:06;21.08;;;15.30;;
11524;SDS011;5819;49.648;8.330;2023-03-01T19:24:34;20.35;;;14.55;;
11524;SDS011;5819;49.648;8.330;2023-03-01T19:27:02;19.85;;;14.05;;
11524;SDS011;5819;49.648;8.330;2023-03-01T19:29:30;21.13;;;14.77;;
11524;SDS011;5819;49.648;8.330;2023-03-01T19:31:58;26.83;;;16.00;;
11524;SDS011;5819;49.648;8.330;2023-03-01T19:34:26;21.23;;;14.82;;
11524;SDS011;5819;49.648;8.330;2023-03-01T19:36:56;25.23;;;15.25;;
11524;SDS011;5819;49.648;8.330;2023-03-01T19:39:24;22.10;;;14.75;;
11524;SDS011;5819;49.648;8.330;2023-03-01T19:41:55;21.70;;;15.13;;
11524;SDS011;5819;49.648;8.330;2023-03-01T19:44:24;19.48;;;14.00;;
11524;SDS011;5819;49.648;8.330;2023-03-01T19:46:55;21.17;;;15.48;;
11524;SDS011;5819;49.648;8.330;2023-03-01T19:49:24;24.00;;;15.07;;
11524;SDS011;5819;49.648;8.330;2023-03-01T19:51:56;20.35;;;14.45;;
11524;SDS011;5819;49.648;8.330;2023-03-01T19:54:24;25.60;;;15.98;;
11524;SDS011;5819;49.648;8.330;2023-03-01T19:56:57;22.42;;;14.45;;
11524;SDS011;5819;49.648;8.330;2023-03-01T19:59:26;21.73;;;14.55;;
11524;SDS011;5819;49.648;8.330;2023-03-01T20:01:54;21.38;;;14.95;;
11524;SDS011;5819;49.648;8.330;2023-03-01T20:04:24;20.98;;;14.65;;
11524;SDS011;5819;49.648;8.330;2023-03-01T20:06:52;22.50;;;14.98;;
11524;SDS011;5819;49.648;8.330;2023-03-01T20:09:25;21.93;;;15.30;;
11524;SDS011;5819;49.648;8.330;2023-03-01T20:11:53;22.95;;;15.20;;
11524;SDS011;5819;49.648;8.330;2023-03-01T20:14:23;22.27;;;15.93;;
11524;SDS011;5819;49.648;8.330;2023-03-01T20:16:51;22.63;;;15.17;;
11524;SDS011;5819;49.648;8.330;2023-03-01T20:19:24;23.58;;;14.43;;
11524;SDS011;5819;49.648;8.330;2023-03-01T20:21:52;21.30;;;14.60;;
11524;SDS011;5819;49.648;8.330;2023-03-01T20:24:20;20.77;;;14.55;;
11524;SDS011;5819;49.648;8.330;2023-03-01T20:26:50;21.50;;;14.38;;
11524;SDS011;5819;49.648;8.330;2023-03-01T20:29:18;23.87;;;15.30;;
11524;SDS011;5819;49.648;8.330;2023-03-01T20:31:47;21.80;;;14.67;;
11524;SDS011;5819;49.648;8.330;2023-03-01T20:34:16;21.93;;;14.37;;
11524;SDS011;5819;49.648;8.330;2023-03-01T20:36:44;22.47;;;14.20;;
11524;SDS011;5819;49.648;8.330;2023-03-01T20:39:13;19.67;;;13.70;;
11524;SDS011;5819;49.648;8.330;2023-03-01T20:41:42;19.53;;;14.00;;
11524;SDS011;5819;49.648;8.330;2023-03-01T20:44:12;23.27;;;14.57;;
11524;SDS011;5819;49.648;8.330;2023-03-01T20:46:40;19.00;;;13.57;;
11524;SDS011;5819;49.648;8.330;2023-03-01T20:49:09;21.77;;;15.00;;
11524;SDS011;5819;49.648;8.330;2023-03-01T20:51:37;20.47;;;13.93;;
11524;SDS011;5819;49.648;8.330;2023-03-01T20:54:06;18.00;;;12.67;;
11524;SDS011;5819;49.648;8.330;2023-03-01T20:56:35;20.53;;;13.70;;
11524;SDS011;5819;49.648;8.330;2023-03-01T20:59:05;22.80;;;14.53;;
11524;SDS011;5819;49.648;8.330;2023-03-01T21:01:38;23.13;;;15.07;;
11524;SDS011;5819;49.648;8.330;2023-03-01T21:04:07;23.40;;;14.77;;
11524;SDS011;5819;49.648;8.330;2023-03-01T21:06:36;24.13;;;15.63;;
11524;SDS011;5819;49.648;8.330;2023-03-01T21:09:04;21.90;;;15.80;;
11524;SDS011;5819;49.648;8.330;2023-03-01T21:11:32;19.50;;;14.60;;
11524;SDS011;5819;49.648;8.330;2023-03-01T21:14:01;22.50;;;14.67;;
11524;SDS011;5819;49.648;8.330;2023-03-01T21:16:31;20.27;;;14.27;;
11524;SDS011;5819;49.648;8.330;2023-03-01T21:19:02;23.58;;;14.82;;
11524;SDS011;5819;49.648;8.330;2023-03-01T21:21:31;22.57;;;15.27;;
11524;SDS011;5819;49.648;8.330;2023-03-01T21:23:59;28.40;;;17.10;;
11524;SDS011;5819;49.648;8.330;2023-03-01T21:26:27;29.57;;;19.17;;
11524;SDS011;5819;49.648;8.330;2023-03-01T21:28:57;24.77;;;16.60;;
11524;SDS011;5819;49.648;8.330;2023-03-01T21:31:27;27.97;;;18.07;;
11524;SDS011;5819;49.648;8.330;2023-03-01T21:34:00;26.63;;;16.43;;
11524;SDS011;5819;49.648;8.330;2023-03-01T21:36:32;24.10;;;16.47;;
11524;SDS011;5819;49.648;8.330;2023-03-01T21:39:02;21.77;;;15.35;;
11524;SDS011;5819;49.648;8.330;2023-03-01T21:41:33;23.70;;;15.03;;
11524;SDS011;5819;49.648;8.330;2023-03-01T21:44:03;21.00;;;13.93;;
11524;SDS011;5819;49.648;8.330;2023-03-01T21:46:34;22.67;;;14.40;;
11524;SDS011;5819;49.648;8.330;2023-03-01T21:49:17;22.17;;;13.63;;
11524;SDS011;5819;49.648;8.330;2023-03-01T21:51:51;24.10;;;15.07;;
11524;SDS011;5819;49.648;8.330;2023-03-01T21:54:22;22.53;;;15.47;;
11524;SDS011;5819;49.648;8.330;2023-03-01T21:56:51;22.60;;;15.23;;
11524;SDS011;5819;49.648;8.330;2023-03-01T21:59:21;22.37;;;14.90;;
11524;SDS011;5819;49.648;8.330;2023-03-01T22:01:50;20.90;;;14.13;;
11524;SDS011;5819;49.648;8.330;2023-03-01T22:04:18;23.60;;;15.30;;
11524;SDS011;5819;49.648;8.330;2023-03-01T22:06:51;22.63;;;14.83;;
11524;SDS011;5819;49.648;8.330;2023-03-01T22:09:20;22.00;;;14.83;;
11524;SDS011;5819;49.648;8.330;2023-03-01T22:11:50;23.90;;;14.70;;
11524;SDS011;5819;49.648;8.330;2023-03-01T22:14:23;21.47;;;14.67;;
11524;SDS011;5819;49.648;8.330;2023-03-01T22:16:52;22.17;;;14.90;;
11524;SDS011;5819;49.648;8.330;2023-03-01T22:19:20;20.10;;;14.03;;
11524;SDS011;5819;49.648;8.330;2023-03-01T22:21:49;19.20;;;13.67;;
11524;SDS011;5819;49.648;8.330;2023-03-01T22:24:21;19.53;;;13.57;;
11524;SDS011;5819;49.648;8.330;2023-03-01T22:26:50;20.67;;;15.03;;
11524;SDS011;5819;49.648;8.330;2023-03-01T22:29:20;22.03;;;14.00;;
11524;SDS011;5819;49.648;8.330;2023-03-01T22:31:48;20.93;;;14.67;;
11524;SDS011;5819;49.648;8.330;2023-03-01T22:34:17;22.03;;;15.00;;
11524;SDS011;5819;49.648;8.330;2023-03-01T22:36:46;20.87;;;14.93;;
11524;SDS011;5819;49.648;8.330;2023-03-01T22:39:16;22.37;;;14.33;;
11524;SDS011;5819;49.648;8.330;2023-03-01T22:41:46;21.37;;;15.17;;
11524;SDS011;5819;49.648;8.330;2023-03-01T22:44:16;21.77;;;14.17;;
11524;SDS011;5819;49.648;8.330;2023-03-01T22:46:45;19.93;;;14.23;;
11524;SDS011;5819;49.648;8.330;2023-03-01T22:49:13;22.33;;;15.07;;
11524;SDS011;5819;49.648;8.330;2023-03-01T22:51:42;23.63;;;15.47;;